Aeroporto :
LOGIN :

Iscrizione | Disclaimer

   EN    FR    IT 

 










Sommario :    VFR   VFR Marginale   IFR   IFR Intensivo   IFR Molto Intensivo
Visibilità : 
Base nubi : 
>= 8 km
>= 3000ft
5 / 8 km
1000 / 3000 ft
1500m / 5 km
500 / 1000 ft
800 / 1500m
200 / 500 ft
< 800m
< 200 ft
Simboli :   Temporali  Nebbia  Neve Forte  Precipitazioni Forti  Vento > 20 kt
SIGMETs :   Varie  Temporali  Ghiacco  Turbolenza  Onda orograficha  Ceneri Vulcaniche






- Altitudine del aeroporto : 788 ft
- Codice IATA : DCM


LFCK - Castres-Mazamet

ULTIMO METAR :
  • 181930Z AUTO 10005KT CAVOK 15/13 Q1013 NOSIG

METARs OBSOLETI :
  • 181900Z AUTO 13003KT 9999 SCT027 BKN140 BKN160 16/13 Q1014 BECMG 12013KT
  • 181830Z AUTO 31002KT 9999 OVC028 17/13 Q1015 BECMG 12013KT
  • 181800Z AUTO 31002KT 9999 OVC026 17/13 Q1015 BECMG 12013KT
  • 181730Z AUTO 28005KT 9999 OVC026 17/13 Q1015 BECMG 12013KT
  • 181700Z AUTO 28006KT 9999 OVC027 18/13 Q1015 BECMG 12013KT

TAF TAF LFCK
Valido dal 18 a 18 ore il 19 a 03 ore UTC


181700Z 1818/1903 VRB03KT 9999 BKN025
BECMG 1819/1821 12013KT CAVOK
TEMPO 1822/1903 13020G30KT



MetMap, La meteo Aeronautica in un colpo d'occhio ! - Copyright ORBIFLY Dicembre 2007 - Disclaimer

ORBIFLY MET'MAP TEAM :

Programmazione e sviluppo : Alexandra Zaïnal
Concezione e sviluppo : Baudouin d'Aumeries
Co-Programmazione e sviluppo : Marc-Olivier Méhu
Supporto tecnico e logistico : Manuel Goepfert
Aiuto per la traduzione : Arnaldo La Scala

Contatto : metmap@orbifly.com




FONTI E CREDITI :

   NOAA